Alexandria, Pennsylvania
Current Conditions -  °F | °C
As of 3:53 AM on Sunday 23 Nov 2014 (Local Time) from KAOO Reporting Station
Broken Clouds Broken Clouds  
Wind Chill: 42°   Ceiling: 9000
Heat Index: 44°   Visibility: 10mi
Dew Point: 26°   Wind: 5mph
Humidity: 49%   Direction: 250°WSW
Pressure: 30.11"   Gusts: NA
Location:  40.56°N, 78.1°W
Report Text: KAOO 230853Z AUTO 25004KT 10SM BKN090 07/M03 A3011 RMK AO2 SLP202 T00671033 58004
Loading
Personal Weather Stations






























Interactive Weather Map New forecast layout! Learn more

10-Day Weather Forecast

Advertisements
Track Severe Weather on mobile